Gran Canaria Sur, Spain
Current Conditions -  °F | °C
As of 8:00 PM on Saturday 25 Oct 2014 (Local Time) from GCLP Reporting Station
Few Clouds Few Clouds  
Wind Chill: 75°   Ceiling: Unl
Heat Index: 75°   Visibility: 6mi
Dew Point: 72°   Wind: 1mph
Humidity: 89%   Direction: NA
Pressure: 30"   Gusts: NA
Location:  28°N, 15.6°W
Report Text: GCLP 251900Z VRB01KT 9999 FEW045 24/22 Q1016 NOSIG
Loading
Personal Weather Stations






























Interactive Weather Map
Tropical Storm Tracking
New forecast layout! Learn more

10-Day Weather Forecast

Advertisements
Track Severe Weather on mobile